Time;durP1;ratioP1;P1;durP2;ratioP2;P2;SDS_P1;SDS_P2;PMS_P1;PMS_P2;Temp;Humidity;BMP_temperature;BMP_pressure;BME280_temperature;BME280_humidity;BME280_pressure;Samples;Min_cycle;Max_cycle;Signal;HPM_P1;HPM_P2
2021/07/12 00:00:07;;;;;;;5.78;4.13;;;17.60;92.90;;;;;;5035846;28;20041;-76
2021/07/12 00:02:33;;;;;;;4.75;3.40;;;17.50;93.10;;;;;;5035829;28;20025;-78
2021/07/12 00:04:59;;;;;;;7.97;4.07;;;17.50;93.10;;;;;;5034873;28;20040;-76
2021/07/12 00:07:24;;;;;;;5.25;3.92;;;17.40;93.30;;;;;;5035667;28;20025;-78
2021/07/12 00:09:50;;;;;;;4.70;3.92;;;17.50;92.90;;;;;;5035755;28;20026;-77
2021/07/12 00:12:15;;;;;;;6.82;3.50;;;17.50;92.70;;;;;;5035554;28;20036;-79
2021/07/12 00:14:42;;;;;;;5.38;3.65;;;17.30;93.00;;;;;;5035506;28;20053;-77
2021/07/12 00:17:07;;;;;;;7.93;4.45;;;17.30;93.10;;;;;;5035377;28;20044;-76
2021/07/12 00:19:33;;;;;;;5.85;4.13;;;17.20;92.80;;;;;;5037782;28;20135;-76
2021/07/12 00:21:59;;;;;;;6.40;4.22;;;17.20;93.10;;;;;;5055561;28;20021;-80
2021/07/12 00:24:24;;;;;;;5.35;3.97;;;17.20;92.80;;;;;;5055263;28;20029;-76
2021/07/12 00:26:50;;;;;;;7.78;4.68;;;16.90;93.40;;;;;;5055544;28;20033;-75
2021/07/12 00:29:15;;;;;;;6.38;4.18;;;16.90;93.60;;;;;;5054993;28;20403;-77
2021/07/12 00:31:41;;;;;;;5.50;4.05;;;16.90;93.40;;;;;;5055101;28;20033;-76
2021/07/12 00:34:07;;;;;;;6.25;3.92;;;17.10;93.20;;;;;;5055164;28;20021;-79
2021/07/12 00:36:32;;;;;;;6.25;3.63;;;17.20;93.00;;;;;;5055128;28;20480;-77
2021/07/12 00:38:58;;;;;;;5.88;3.83;;;17.20;92.70;;;;;;5054976;28;20100;-77
2021/07/12 00:41:24;;;;;;;5.43;3.47;;;17.20;92.70;;;;;;5054799;28;20226;-77
2021/07/12 00:43:49;;;;;;;6.32;3.90;;;17.20;92.90;;;;;;5055036;28;20025;-75
2021/07/12 00:46:15;;;;;;;8.00;3.78;;;17.10;92.70;;;;;;5054923;28;20063;-77
2021/07/12 00:48:41;;;;;;;4.50;3.40;;;17.10;92.90;;;;;;5055000;28;20025;-75
2021/07/12 00:51:06;;;;;;;6.65;3.80;;;17.00;93.20;;;;;;5054596;28;20032;-78
2021/07/12 00:53:32;;;;;;;5.25;3.75;;;17.00;93.30;;;;;;5054555;28;20028;-79
2021/07/12 00:55:58;;;;;;;7.43;3.80;;;17.00;93.30;;;;;;5054721;28;20039;-76
2021/07/12 00:58:26;;;;;;;5.25;3.85;;;17.00;93.20;;;;;;5054683;28;20027;-76
2021/07/12 01:00:54;;;;;;;9.10;4.18;;;17.00;93.30;;;;;;5054678;28;20032;-75
2021/07/12 01:03:22;;;;;;;5.28;4.05;;;17.00;93.30;;;;;;5036624;28;20029;-77
2021/07/12 01:05:47;;;;;;;4.68;3.53;;;17.00;93.40;;;;;;5054228;28;20378;-77
2021/07/12 01:08:13;;;;;;;6.65;3.97;;;17.00;93.30;;;;;;5054517;28;20021;-78
2021/07/12 01:10:41;;;;;;;5.82;3.58;;;16.90;93.50;;;;;;5054348;28;20029;-77
2021/07/12 01:13:29;;;;;;;6.75;4.00;;;17.00;93.10;;;;;;5054391;28;20021;-76
2021/07/12 01:16:18;;;;;;;6.43;3.65;;;17.00;93.20;;;;;;5054049;28;20033;-76
2021/07/12 01:19:22;;;;;;;6.07;3.83;;;16.90;93.20;;;;;;5053773;28;20025;-77
2021/07/12 01:22:00;;;;;;;5.57;3.80;;;16.70;93.50;;;;;;5034319;28;20041;-79
2021/07/12 01:24:59;;;;;;;6.40;3.33;;;16.70;93.50;;;;;;5034011;28;20100;-77
2021/07/12 01:28:18;;;;;;;6.63;4.13;;;16.80;93.40;;;;;;5034178;28;20449;-80
2021/07/12 01:31:06;;;;;;;9.52;4.65;;;16.80;93.10;;;;;;4934912;29;20082;-78
2021/07/12 01:34:10;;;;;;;8.18;3.50;;;16.60;93.70;;;;;;4918678;29;20023;-76
2021/07/12 01:36:43;;;;;;;5.10;3.38;;;16.70;93.40;;;;;;5023985;28;20104;-76
2021/07/12 01:39:15;;;;;;;5.93;3.83;;;16.90;93.00;;;;;;5033814;28;20390;-79
2021/07/12 01:42:05;;;;;;;4.75;3.33;;;16.80;92.90;;;;;;5033639;28;20040;-78
2021/07/12 01:44:49;;;;;;;5.70;3.50;;;16.90;92.90;;;;;;5015952;28;20126;-76
2021/07/12 01:47:23;;;;;;;5.55;3.50;;;16.90;93.00;;;;;;5033767;28;20105;-77
2021/07/12 01:50:04;;;;;;;6.35;3.70;;;16.80;93.10;;;;;;5033863;28;20033;-78
2021/07/12 01:52:44;;;;;;;4.32;3.35;;;16.90;93.20;;;;;;5033435;28;20064;-78
2021/07/12 01:55:18;;;;;;;6.38;3.85;;;17.00;93.10;;;;;;5034231;28;20064;-78
2021/07/12 01:58:09;;;;;;;7.88;3.60;;;17.00;92.90;;;;;;5033637;28;20079;-75
2021/07/12 02:00:36;;;;;;;5.18;3.20;;;17.10;92.90;;;;;;5016663;28;20447;-75
2021/07/12 02:03:03;;;;;;;5.45;3.67;;;17.10;92.90;;;;;;5033564;28;20025;-77
2021/07/12 02:05:32;;;;;;;4.53;3.65;;;17.10;93.00;;;;;;5033333;28;20063;-76
2021/07/12 02:08:00;;;;;;;5.55;3.70;;;17.10;93.00;;;;;;5033459;28;20076;-80
2021/07/12 02:10:27;;;;;;;4.18;3.60;;;17.20;93.00;;;;;;5033461;28;20021;-78
2021/07/12 02:12:54;;;;;;;6.72;3.30;;;17.20;92.90;;;;;;5033459;28;20500;-76
2021/07/12 02:15:20;;;;;;;5.60;4.00;;;17.20;93.20;;;;;;5033256;28;20018;-78
2021/07/12 02:17:50;;;;;;;4.97;3.35;;;17.00;93.30;;;;;;5033105;28;20029;-79
2021/07/12 02:20:18;;;;;;;8.13;4.15;;;17.00;93.40;;;;;;5041500;28;20600;-79
2021/07/12 02:22:46;;;;;;;6.85;4.20;;;17.10;93.50;;;;;;5053179;28;20025;-75
2021/07/12 02:25:14;;;;;;;6.57;3.95;;;17.10;93.20;;;;;;5053055;28;20064;-75
2021/07/12 02:27:43;;;;;;;8.57;4.07;;;17.00;93.70;;;;;;5052886;28;20078;-76
2021/07/12 02:30:09;;;;;;;6.72;4.00;;;17.00;93.60;;;;;;5053013;28;20020;-78
2021/07/12 02:32:36;;;;;;;10.70;4.10;;;16.90;93.50;;;;;;5053101;28;20124;-78
2021/07/12 02:35:07;;;;;;;7.72;4.53;;;16.80;93.90;;;;;;5053071;28;20022;-76
2021/07/12 02:37:39;;;;;;;6.57;4.30;;;16.90;93.80;;;;;;5053207;28;20112;-78
2021/07/12 02:40:08;;;;;;;9.25;4.10;;;16.90;94.00;;;;;;5052812;28;20021;-76
2021/07/12 02:42:36;;;;;;;8.95;4.20;;;17.00;94.20;;;;;;5052973;28;20029;-79
2021/07/12 02:45:04;;;;;;;6.78;4.25;;;17.00;93.80;;;;;;5053028;28;20113;-76
2021/07/12 02:47:30;;;;;;;11.20;3.70;;;17.00;93.90;;;;;;5053009;28;20387;-79
2021/07/12 02:49:55;;;;;;;7.80;3.90;;;17.00;93.90;;;;;;5052949;28;20017;-79
2021/07/12 02:52:32;;;;;;;6.80;3.67;;;17.20;93.70;;;;;;5052642;28;20122;-77
2021/07/12 02:55:00;;;;;;;7.88;4.45;;;17.30;93.70;;;;;;5052947;28;20052;-78
2021/07/12 02:57:27;;;;;;;7.38;3.90;;;17.20;93.80;;;;;;5052869;28;20045;-75
2021/07/12 02:59:53;;;;;;;8.23;4.50;;;17.10;94.00;;;;;;5052865;28;20021;-78
2021/07/12 03:02:19;;;;;;;9.70;4.38;;;17.10;94.00;;;;;;5052850;28;20028;-78
2021/07/12 03:04:44;;;;;;;8.48;4.15;;;17.20;94.00;;;;;;5052659;28;20029;-78
2021/07/12 03:07:34;;;;;;;10.15;4.47;;;17.20;94.00;;;;;;5052932;28;20037;-78
2021/07/12 03:10:12;;;;;;;8.53;3.63;;;17.20;93.90;;;;;;5052913;28;20424;-76
2021/07/12 03:12:48;;;;;;;7.10;3.58;;;17.20;93.80;;;;;;5052715;28;20025;-78
2021/07/12 03:15:16;;;;;;;5.95;3.53;;;17.20;93.90;;;;;;5052709;28;20041;-75
2021/07/12 03:17:50;;;;;;;7.38;4.35;;;17.20;94.00;;;;;;5052448;28;20396;-78
2021/07/12 03:20:18;;;;;;;7.15;3.72;;;17.20;94.00;;;;;;5044404;28;20421;-77
2021/07/12 03:22:49;;;;;;;9.90;4.25;;;17.30;94.00;;;;;;5032726;28;20105;-79
2021/07/12 03:25:20;;;;;;;8.93;3.60;;;17.30;94.10;;;;;;5032788;28;20552;-75
2021/07/12 03:27:45;;;;;;;6.07;3.70;;;17.30;94.00;;;;;;5032447;28;20490;-78
2021/07/12 03:30:12;;;;;;;10.63;4.45;;;17.30;94.00;;;;;;5032667;28;20029;-77
2021/07/12 03:32:43;;;;;;;6.88;3.85;;;17.30;93.90;;;;;;5032727;28;20064;-77
2021/07/12 03:35:10;;;;;;;8.35;4.30;;;17.30;94.00;;;;;;5032813;28;20032;-78
2021/07/12 03:37:36;;;;;;;11.43;4.47;;;17.30;94.00;;;;;;5032652;28;20017;-78
2021/07/12 03:40:02;;;;;;;5.13;3.60;;;17.30;93.90;;;;;;5032670;28;20033;-76
2021/07/12 03:42:28;;;;;;;6.38;3.50;;;17.30;94.00;;;;;;5036242;28;20061;-76
2021/07/12 03:44:54;;;;;;;7.13;4.30;;;17.30;94.10;;;;;;5036228;28;20072;-77
2021/07/12 03:47:24;;;;;;;8.52;3.50;;;17.30;93.90;;;;;;5036101;28;20025;-78
2021/07/12 03:49:50;;;;;;;6.30;4.10;;;17.30;93.90;;;;;;5036064;28;20033;-75
2021/07/12 03:52:17;;;;;;;6.10;3.95;;;17.30;94.00;;;;;;5035699;28;20032;-78
2021/07/12 03:54:42;;;;;;;5.40;3.90;;;17.40;94.10;;;;;;5035985;28;20029;-78
2021/07/12 03:57:08;;;;;;;6.45;3.70;;;17.30;94.10;;;;;;5035969;28;20029;-77
2021/07/12 03:59:33;;;;;;;6.45;4.18;;;17.40;94.10;;;;;;5035843;28;20025;-79
2021/07/12 04:01:59;;;;;;;5.00;3.83;;;17.30;94.10;;;;;;5035851;28;20021;-77
2021/07/12 04:04:25;;;;;;;7.22;4.20;;;17.30;94.20;;;;;;5035496;28;20039;-76
2021/07/12 04:06:50;;;;;;;6.07;3.83;;;17.30;94.30;;;;;;5035761;28;20390;-78
2021/07/12 04:09:16;;;;;;;10.15;4.28;;;17.30;94.40;;;;;;5035808;28;20030;-77
2021/07/12 04:11:41;;;;;;;7.30;3.88;;;17.30;94.50;;;;;;5035586;28;20026;-80
2021/07/12 04:14:07;;;;;;;6.38;3.80;;;17.30;94.50;;;;;;5035592;28;20021;-77
2021/07/12 04:16:33;;;;;;;6.63;4.10;;;17.40;94.40;;;;;;5035247;28;20028;-78
2021/07/12 04:18:59;;;;;;;9.90;4.75;;;17.40;94.40;;;;;;5035512;28;20025;-79
2021/07/12 04:21:24;;;;;;;10.38;4.93;;;17.50;94.10;;;;;;5052966;28;20028;-79
2021/07/12 04:23:50;;;;;;;11.63;5.07;;;17.40;94.20;;;;;;5055451;28;20033;-78
2021/07/12 04:26:16;;;;;;;9.80;4.88;;;17.40;94.40;;;;;;5055158;28;20517;-76
2021/07/12 04:28:42;;;;;;;8.43;4.55;;;17.30;94.50;;;;;;5055171;28;20104;-78
2021/07/12 04:31:08;;;;;;;10.73;4.68;;;17.30;94.70;;;;;;5055122;28;20061;-77
2021/07/12 04:33:33;;;;;;;8.55;4.18;;;17.30;94.60;;;;;;5055397;28;20028;-77
2021/07/12 04:35:59;;;;;;;9.05;4.30;;;17.30;94.50;;;;;;5055235;28;20025;-78
2021/07/12 04:38:24;;;;;;;7.60;4.20;;;17.30;94.60;;;;;;5055187;28;20032;-76
2021/07/12 04:40:50;;;;;;;7.10;4.28;;;17.30;94.60;;;;;;5054982;28;20020;-78
2021/07/12 04:43:16;;;;;;;7.05;4.50;;;17.30;94.60;;;;;;5055017;28;20017;-77
2021/07/12 04:45:41;;;;;;;11.63;4.18;;;17.20;94.80;;;;;;5054944;28;20032;-77
2021/07/12 04:48:08;;;;;;;10.27;4.80;;;17.20;95.00;;;;;;5054931;28;20031;-75
2021/07/12 04:50:33;;;;;;;10.00;4.50;;;17.30;94.90;;;;;;5054725;28;20389;-77
2021/07/12 04:52:59;;;;;;;7.00;4.22;;;17.30;94.80;;;;;;5054464;28;20025;-75
2021/07/12 04:55:25;;;;;;;7.55;3.85;;;17.30;94.80;;;;;;5054703;28;20028;-78
2021/07/12 04:57:50;;;;;;;6.80;3.75;;;17.30;94.70;;;;;;5054746;28;20083;-76
2021/07/12 05:00:16;;;;;;;9.07;4.20;;;17.30;94.70;;;;;;5054821;28;20068;-78
2021/07/12 05:02:42;;;;;;;9.13;4.55;;;17.20;95.10;;;;;;5054599;28;20028;-78
2021/07/12 05:05:09;;;;;;;9.93;5.88;;;17.20;95.10;;;;;;5054399;28;20033;-74
2021/07/12 05:07:36;;;;;;;19.65;5.60;;;17.20;95.40;;;;;;5054491;28;20099;-77
2021/07/12 05:10:03;;;;;;;9.43;4.90;;;17.10;96.00;;;;;;5054508;28;20032;-75
2021/07/12 05:12:29;;;;;;;8.98;4.25;;;17.00;96.00;;;;;;5054383;28;20059;-76
2021/07/12 05:14:55;;;;;;;6.38;3.30;;;16.80;96.20;;;;;;5054320;28;20060;-77
2021/07/12 05:17:20;;;;;;;3.97;1.77;;;16.70;96.40;;;;;;5054129;28;20025;-78
2021/07/12 05:19:46;;;;;;;2.33;1.60;;;16.60;96.10;;;;;;5050001;28;20096;-78
2021/07/12 05:22:11;;;;;;;3.78;1.85;;;16.40;96.50;;;;;;5016552;28;20025;-76
2021/07/12 05:24:37;;;;;;;1.85;1.60;;;16.40;96.40;;;;;;5034122;28;20029;-75
2021/07/12 05:27:03;;;;;;;2.17;1.73;;;16.30;96.50;;;;;;5034160;28;20510;-78
2021/07/12 05:29:29;;;;;;;1.60;1.50;;;16.40;96.20;;;;;;5033930;28;20033;-77
2021/07/12 05:31:55;;;;;;;1.80;1.52;;;16.40;96.00;;;;;;5034151;28;20112;-79
2021/07/12 05:34:20;;;;;;;2.38;1.42;;;16.40;95.60;;;;;;5034091;28;20079;-76
2021/07/12 05:36:46;;;;;;;2.35;1.80;;;16.40;96.00;;;;;;5034152;28;20017;-77
2021/07/12 05:39:15;;;;;;;3.40;1.90;;;16.40;96.00;;;;;;5033879;28;20021;-77
2021/07/12 05:41:41;;;;;;;5.10;2.50;;;16.40;95.50;;;;;;5033721;28;20025;-78
2021/07/12 05:44:07;;;;;;;5.63;2.83;;;16.40;95.50;;;;;;5016165;28;20029;-76
2021/07/12 05:46:33;;;;;;;5.10;3.38;;;16.40;95.50;;;;;;5033881;28;20116;-77
2021/07/12 05:48:58;;;;;;;7.45;3.63;;;16.40;95.40;;;;;;5033839;28;20117;-77
2021/07/12 05:51:24;;;;;;;5.70;3.78;;;16.40;95.40;;;;;;5033671;28;20029;-77
2021/07/12 05:53:50;;;;;;;5.50;3.50;;;16.30;95.90;;;;;;5033566;28;20072;-76
2021/07/12 05:56:15;;;;;;;6.97;3.70;;;16.30;95.30;;;;;;5033760;28;20068;-76
2021/07/12 05:58:41;;;;;;;6.22;3.92;;;16.30;95.20;;;;;;5034077;28;20026;-75
2021/07/12 06:01:07;;;;;;;7.53;4.72;;;16.30;94.80;;;;;;5033621;28;20509;-77
2021/07/12 06:03:32;;;;;;;5.97;4.13;;;16.30;95.00;;;;;;5032921;28;20029;-77
2021/07/12 06:05:58;;;;;;;7.78;4.22;;;16.30;95.30;;;;;;5033255;28;20456;-75
2021/07/12 06:08:24;;;;;;;8.52;4.65;;;16.30;95.30;;;;;;5033532;28;20134;-78
2021/07/12 06:10:49;;;;;;;6.40;4.00;;;16.30;95.10;;;;;;5033459;28;20497;-75
2021/07/12 06:13:15;;;;;;;7.22;4.50;;;16.30;95.00;;;;;;5033396;28;20030;-76
2021/07/12 06:15:41;;;;;;;7.00;4.72;;;16.40;95.10;;;;;;5033322;28;20025;-77
2021/07/12 06:18:14;;;;;;;7.72;3.90;;;16.50;94.70;;;;;;5033366;28;20079;-77
2021/07/12 06:20:40;;;;;;;8.15;4.65;;;16.50;95.30;;;;;;5044455;28;20497;-79
2021/07/12 06:23:06;;;;;;;6.60;4.40;;;16.50;94.90;;;;;;5053252;28;20025;-78
2021/07/12 06:25:32;;;;;;;7.80;4.53;;;16.60;94.70;;;;;;5053050;28;20047;-78
2021/07/12 06:27:57;;;;;;;7.65;5.47;;;16.60;94.40;;;;;;5053005;28;20017;-78
2021/07/12 06:30:23;;;;;;;8.00;5.10;;;16.70;94.40;;;;;;5052796;28;20017;-79
2021/07/12 06:32:49;;;;;;;7.45;5.45;;;16.80;94.50;;;;;;5053202;28;20445;-76
2021/07/12 06:35:14;;;;;;;8.02;5.60;;;16.80;94.40;;;;;;5053183;28;20051;-76
2021/07/12 06:37:41;;;;;;;8.60;5.40;;;16.80;94.40;;;;;;5053092;28;20029;-76
2021/07/12 06:40:07;;;;;;;10.65;5.28;;;16.80;94.40;;;;;;5052848;28;20458;-78
2021/07/12 06:42:33;;;;;;;12.68;5.60;;;16.70;94.40;;;;;;5052909;28;20082;-79
2021/07/12 06:44:59;;;;;;;11.88;5.70;;;16.70;94.60;;;;;;5053163;28;20025;-78
2021/07/12 06:47:26;;;;;;;7.97;5.72;;;16.70;94.30;;;;;;5053023;28;20029;-78
2021/07/12 06:49:52;;;;;;;8.55;6.00;;;16.70;94.30;;;;;;5053110;28;20063;-76
2021/07/12 06:52:18;;;;;;;10.77;6.20;;;16.70;94.40;;;;;;5052649;28;20074;-75
2021/07/12 06:54:45;;;;;;;7.63;5.30;;;16.70;94.40;;;;;;5052884;28;20063;-75
2021/07/12 06:57:14;;;;;;;11.88;5.80;;;16.70;94.40;;;;;;5052948;28;20021;-79
2021/07/12 06:59:40;;;;;;;10.10;5.93;;;16.80;93.80;;;;;;5052827;28;20016;-76
2021/07/12 07:02:06;;;;;;;10.65;5.78;;;16.90;94.10;;;;;;5052881;28;20029;-77
2021/07/12 07:04:31;;;;;;;9.68;6.03;;;17.00;93.60;;;;;;5052572;28;20025;-78
2021/07/12 07:06:57;;;;;;;8.57;6.03;;;17.00;93.70;;;;;;5052763;28;20029;-77
2021/07/12 07:09:24;;;;;;;8.23;5.05;;;17.00;93.30;;;;;;5052653;28;20107;-77
2021/07/12 07:11:50;;;;;;;7.88;5.47;;;17.00;93.50;;;;;;5053663;28;20047;-79
2021/07/12 07:14:15;;;;;;;11.65;5.68;;;17.10;93.60;;;;;;5072727;28;20481;-79
2021/07/12 07:16:42;;;;;;;8.32;5.82;;;17.20;93.40;;;;;;5071275;28;20116;-79
2021/07/12 07:19:08;;;;;;;9.88;5.80;;;17.20;92.80;;;;;;5056558;28;20100;-78
2021/07/12 07:21:34;;;;;;;9.57;5.80;;;17.10;93.00;;;;;;5037270;28;20061;-84
2021/07/12 07:24:01;;;;;;;9.75;5.35;;;17.00;93.20;;;;;;5036803;28;20028;-86
2021/07/12 07:26:26;;;;;;;8.02;5.32;;;17.00;92.70;;;;;;5050015;28;20052;-84
2021/07/12 07:28:55;;;;;;;10.52;4.93;;;17.00;93.20;;;;;;5056451;28;20033;-80
2021/07/12 07:31:21;;;;;;;9.93;5.38;;;16.90;92.80;;;;;;5056398;28;20112;-79
2021/07/12 07:33:47;;;;;;;9.55;5.75;;;17.00;93.30;;;;;;5056475;28;20500;-80
2021/07/12 07:36:13;;;;;;;6.88;5.03;;;16.90;92.40;;;;;;5056336;28;20064;-80
2021/07/12 07:38:39;;;;;;;9.45;5.20;;;16.80;93.20;;;;;;5065141;28;20029;-80
2021/07/12 07:41:04;;;;;;;7.82;4.70;;;16.90;93.20;;;;;;5074219;28;20111;-80
2021/07/12 07:43:30;;;;;;;10.40;5.00;;;17.10;93.10;;;;;;5074407;28;20043;-80
2021/07/12 07:45:56;;;;;;;9.48;5.55;;;17.00;92.80;;;;;;5072295;28;20029;-80
2021/07/12 07:48:21;;;;;;;6.65;4.65;;;17.00;92.80;;;;;;5056932;28;20021;-80
2021/07/12 07:50:47;;;;;;;6.97;4.55;;;17.00;92.90;;;;;;5061184;28;20052;-81
2021/07/12 07:53:13;;;;;;;6.47;4.65;;;17.10;92.80;;;;;;5070541;28;20033;-83
2021/07/12 07:55:40;;;;;;;9.63;5.20;;;17.20;93.00;;;;;;5075938;28;20031;-82
2021/07/12 07:58:05;;;;;;;8.32;4.68;;;17.30;92.60;;;;;;5074885;28;20020;-80
2021/07/12 08:00:31;;;;;;;7.72;4.47;;;17.20;93.00;;;;;;5074798;28;20381;-83
2021/07/12 08:02:57;;;;;;;7.93;4.80;;;17.30;92.50;;;;;;5067028;28;20591;-81
2021/07/12 08:05:23;;;;;;;8.98;4.68;;;17.20;92.30;;;;;;5063710;28;20025;-80
2021/07/12 08:07:49;;;;;;;7.43;3.90;;;17.20;92.50;;;;;;5067008;28;20103;-82
2021/07/12 08:10:17;;;;;;;6.95;4.25;;;17.30;91.90;;;;;;5063907;28;20099;-80
2021/07/12 08:12:43;;;;;;;7.63;4.20;;;17.30;92.20;;;;;;5069416;28;20061;-80
2021/07/12 08:15:11;;;;;;;9.38;4.57;;;17.50;92.30;;;;;;5070122;28;20485;-79
2021/07/12 08:17:37;;;;;;;7.80;4.20;;;17.60;91.50;;;;;;5073195;28;20501;-76
2021/07/12 08:20:04;;;;;;;8.80;3.80;;;17.60;90.50;;;;;;5075194;28;20024;-79
2021/07/12 08:22:31;;;;;;;5.00;3.55;;;17.60;90.30;;;;;;5072973;28;20028;-80
2021/07/12 08:24:56;;;;;;;7.15;3.70;;;17.80;90.30;;;;;;5058095;28;20057;-79
2021/07/12 08:27:22;;;;;;;7.82;3.70;;;17.90;90.60;;;;;;5052546;28;20025;-75
2021/07/12 08:29:48;;;;;;;4.40;3.40;;;18.00;90.60;;;;;;5039793;28;20044;-78
2021/07/12 08:32:13;;;;;;;5.47;3.47;;;18.20;89.80;;;;;;5034739;28;20068;-78
2021/07/12 08:34:41;;;;;;;7.18;3.60;;;18.50;87.80;;;;;;5035256;28;20029;-78
2021/07/12 08:37:08;;;;;;;9.68;3.10;;;18.80;85.80;;;;;;5035158;28;20374;-78
2021/07/12 08:39:34;;;;;;;6.05;3.10;;;19.30;85.90;;;;;;5035005;28;20434;-77
2021/07/12 08:41:59;;;;;;;3.78;2.72;;;20.10;83.60;;;;;;5034840;28;20067;-76
2021/07/12 08:44:26;;;;;;;4.95;3.00;;;20.80;78.80;;;;;;5040584;28;20025;-82
2021/07/12 08:46:53;;;;;;;4.40;2.33;;;21.10;78.20;;;;;;5034101;28;20032;-79
2021/07/12 08:49:19;;;;;;;5.80;2.65;;;21.60;73.90;;;;;;5054857;28;20025;-81
2021/07/12 08:51:45;;;;;;;6.78;2.80;;;21.90;74.50;;;;;;5043475;28;20486;-78
2021/07/12 08:54:10;;;;;;;4.82;2.58;;;22.40;72.20;;;;;;5047536;28;20024;-80
2021/07/12 08:56:37;;;;;;;5.45;2.30;;;23.00;68.00;;;;;;5036914;28;20071;-80
2021/07/12 08:59:42;;;;;;;4.93;2.50;;;23.00;68.00;;;;;;5053623;28;20478;-77
2021/07/12 09:02:16;;;;;;;3.80;2.10;;;22.60;67.00;;;;;;4954592;28;20131;-79
2021/07/12 09:04:54;;;;;;;5.60;2.65;;;22.40;68.30;;;;;;4953174;29;20042;-80
2021/07/12 09:07:21;;;;;;;3.90;2.03;;;22.90;70.60;;;;;;4997734;28;20037;-80
2021/07/12 09:10:00;;;;;;;4.40;2.30;;;23.90;64.10;;;;;;5038871;28;20103;-80
2021/07/12 09:12:47;;;;;;;4.40;1.77;;;23.90;59.40;;;;;;5054520;28;20477;-81
2021/07/12 09:15:22;;;;;;;4.25;1.80;;;24.30;58.50;;;;;;5054218;28;20263;-80
2021/07/12 09:17:53;;;;;;;2.55;1.80;;;24.50;57.30;;;;;;5054260;28;20025;-80
2021/07/12 09:20:28;;;;;;;3.97;1.92;;;24.40;58.40;;;;;;5045476;28;20017;-80
2021/07/12 09:22:55;;;;;;;3.63;1.70;;;23.80;57.70;;;;;;5046270;28;20021;-79
2021/07/12 09:25:21;;;;;;;4.97;1.83;;;23.60;56.40;;;;;;5052149;28;20029;-80
2021/07/12 09:27:46;;;;;;;3.75;1.50;;;23.70;57.60;;;;;;5053983;28;20516;-80
2021/07/12 09:30:14;;;;;;;2.60;1.63;;;24.20;56.00;;;;;;5052297;28;20029;-78
2021/07/12 09:32:44;;;;;;;3.42;1.58;;;24.30;55.50;;;;;;5042199;28;20117;-78
2021/07/12 09:35:18;;;;;;;3.55;1.70;;;24.50;54.00;;;;;;5033766;28;20517;-77
2021/07/12 09:37:55;;;;;;;4.45;1.77;;;25.20;52.60;;;;;;5048714;28;20029;-76
2021/07/12 09:40:21;;;;;;;3.60;1.80;;;25.50;52.10;;;;;;5051798;28;20029;-79
2021/07/12 09:42:49;;;;;;;4.45;2.22;;;25.30;53.50;;;;;;5051519;28;20021;-78
2021/07/12 09:45:17;;;;;;;2.00;1.73;;;24.70;54.80;;;;;;5034572;28;20470;-75
2021/07/12 09:47:45;;;;;;;4.22;1.83;;;24.20;55.10;;;;;;5033921;28;20079;-80
2021/07/12 09:50:23;;;;;;;4.65;2.25;;;23.70;56.50;;;;;;5049252;28;20055;-77
2021/07/12 09:52:54;;;;;;;4.35;2.00;;;23.20;58.80;;;;;;5053341;28;20028;-80
2021/07/12 09:55:23;;;;;;;3.17;1.80;;;23.20;58.60;;;;;;5051691;28;20071;-75
2021/07/12 09:58:08;;;;;;;7.20;2.20;;;23.20;57.20;;;;;;5051282;28;20071;-81
2021/07/12 10:00:34;;;;;;;4.15;2.10;;;22.80;59.90;;;;;;5053740;28;20057;-77
2021/07/12 10:03:01;;;;;;;2.67;1.70;;;23.00;60.00;;;;;;5052399;28;20032;-78
2021/07/12 10:05:27;;;;;;;2.15;1.52;;;23.60;56.40;;;;;;5053331;28;20492;-78
2021/07/12 10:07:53;;;;;;;3.33;2.10;;;24.20;53.30;;;;;;5052535;28;20171;-79
2021/07/12 10:10:18;;;;;;;2.63;1.63;;;26.20;51.30;;;;;;5051548;28;20438;-82
2021/07/12 10:12:45;;;;;;;4.93;1.80;;;27.10;46.80;;;;;;5053301;28;20120;-82
2021/07/12 10:15:15;;;;;;;3.15;1.40;;;28.80;44.70;;;;;;5051037;28;20414;-77
2021/07/12 10:17:45;;;;;;;4.60;1.77;;;30.70;41.30;;;;;;5051361;28;20029;-79
2021/07/12 10:20:12;;;;;;;4.10;1.48;;;30.50;41.80;;;;;;5053201;28;20017;-74
2021/07/12 10:22:39;;;;;;;3.05;1.50;;;30.90;40.50;;;;;;5051848;28;20410;-76
2021/07/12 10:25:12;;;;;;;3.40;1.23;;;31.30;38.60;;;;;;5053041;28;20076;-77
2021/07/12 10:27:52;;;;;;;1.20;1.10;;;33.10;36.10;;;;;;5052185;28;20032;-77
2021/07/12 10:30:58;;;;;;;1.60;1.23;;;32.40;35.70;;;;;;5053339;28;20033;-77
2021/07/12 10:33:32;;;;;;;2.03;1.00;;;32.20;36.30;;;;;;5050838;28;20497;-79
2021/07/12 10:35:59;;;;;;;2.30;1.27;;;33.20;35.60;;;;;;5053119;28;20090;-75
2021/07/12 10:38:38;;;;;;;2.70;1.25;;;34.90;33.70;;;;;;5053193;28;20025;-76
2021/07/12 10:41:25;;;;;;;2.75;1.42;;;33.90;33.60;;;;;;5053022;28;20482;-76
2021/07/12 10:43:57;;;;;;;3.47;1.67;;;30.70;38.50;;;;;;5053228;28;20440;-77
2021/07/12 10:46:26;;;;;;;3.35;1.65;;;28.00;42.70;;;;;;5053342;28;20021;-79
2021/07/12 10:48:53;;;;;;;3.85;1.48;;;26.00;46.60;;;;;;5053058;28;20385;-77
2021/07/12 10:51:23;;;;;;;1.60;1.50;;;25.00;47.90;;;;;;5056916;28;20489;-74
2021/07/12 10:54:12;;;;;;;2.60;1.70;;;24.50;49.30;;;;;;5056877;28;20028;-77
2021/07/12 10:56:57;;;;;;;4.50;1.40;;;24.50;49.90;;;;;;5057176;28;20027;-76
2021/07/12 10:59:34;;;;;;;3.42;1.50;;;27.30;44.00;;;;;;5038879;28;20021;-76
2021/07/12 11:02:02;;;;;;;4.05;1.42;;;28.10;43.40;;;;;;5056946;28;20436;-78
2021/07/12 11:04:51;;;;;;;2.88;1.45;;;32.50;39.00;;;;;;5056543;28;20029;-77
2021/07/12 11:07:19;;;;;;;1.25;1.05;;;36.30;33.50;;;;;;5056836;28;20021;-78
2021/07/12 11:09:47;;;;;;;1.55;1.08;;;38.60;30.70;;;;;;5056840;28;20051;-76
2021/07/12 11:12:38;;;;;;;2.65;1.33;;;37.30;29.40;;;;;;5056678;28;20380;-75
2021/07/12 11:15:10;;;;;;;2.60;1.00;;;32.60;34.80;;;;;;5056720;28;20036;-76
2021/07/12 11:17:55;;;;;;;3.00;1.20;;;29.10;39.70;;;;;;5056492;28;20021;-78
2021/07/12 11:20:48;;;;;;;1.45;1.30;;;26.80;43.00;;;;;;5056374;28;20515;-78
2021/07/12 11:23:53;;;;;;;4.78;1.70;;;25.50;45.70;;;;;;5056588;28;20075;-76
2021/07/12 11:26:19;;;;;;;4.53;1.80;;;24.50;48.10;;;;;;5042379;28;20052;-74
2021/07/12 11:28:51;;;;;;;1.88;1.40;;;24.00;49.10;;;;;;5056192;28;20029;-75
2021/07/12 11:31:54;;;;;;;2.88;1.52;;;23.60;50.10;;;;;;5056349;28;20067;-74
2021/07/12 11:34:26;;;;;;;3.20;1.80;;;23.30;51.10;;;;;;5056368;28;20542;-75
2021/07/12 11:36:56;;;;;;;3.10;1.75;;;23.20;51.80;;;;;;5056310;28;20025;-76
2021/07/12 11:39:24;;;;;;;4.28;1.85;;;23.10;51.90;;;;;;5056102;28;20021;-76
2021/07/12 11:41:50;;;;;;;3.63;1.67;;;23.10;51.00;;;;;;5055990;28;20028;-75
2021/07/12 11:44:17;;;;;;;3.30;1.80;;;23.10;51.10;;;;;;5056212;28;20059;-75
2021/07/12 11:46:43;;;;;;;4.72;1.95;;;23.20;52.00;;;;;;5056236;28;20032;-80
2021/07/12 11:49:15;;;;;;;2.53;1.70;;;23.50;50.90;;;;;;5056105;28;20017;-75
2021/07/12 11:51:43;;;;;;;3.60;1.63;;;23.80;51.40;;;;;;5055828;28;20029;-77
2021/07/12 11:54:18;;;;;;;4.43;1.80;;;24.30;51.00;;;;;;5056009;28;20021;-77
2021/07/12 11:57:10;;;;;;;2.67;1.70;;;24.50;49.50;;;;;;5055963;28;20504;-76
2021/07/12 11:59:37;;;;;;;2.08;1.70;;;24.10;49.50;;;;;;5055960;28;20013;-76
2021/07/12 12:02:08;;;;;;;3.17;1.80;;;23.90;50.10;;;;;;5054900;28;20027;-75
2021/07/12 12:04:41;;;;;;;2.20;1.80;;;23.70;50.80;;;;;;5055624;28;20099;-76
2021/07/12 12:07:27;;;;;;;3.92;1.60;;;23.50;52.40;;;;;;5053795;28;20033;-74
2021/07/12 12:09:56;;;;;;;3.08;2.38;;;23.20;53.50;;;;;;5051923;28;20029;-77
2021/07/12 12:12:29;;;;;;;4.88;1.88;;;23.20;52.60;;;;;;5054381;28;20443;-77
2021/07/12 12:14:56;;;;;;;3.17;1.85;;;23.50;54.10;;;;;;5053329;28;20025;-76
2021/07/12 12:17:22;;;;;;;2.60;1.63;;;23.60;54.10;;;;;;5054158;28;20029;-82
2021/07/12 12:20:06;;;;;;;3.88;1.77;;;23.40;54.50;;;;;;5055211;28;20017;-78
2021/07/12 12:22:31;;;;;;;3.35;1.77;;;22.90;54.90;;;;;;5054864;28;20052;-79
2021/07/12 12:24:57;;;;;;;2.42;1.70;;;22.60;54.30;;;;;;5055287;28;20083;-77
2021/07/12 12:27:23;;;;;;;3.72;1.70;;;22.50;54.30;;;;;;5054183;28;20032;-80
2021/07/12 12:29:49;;;;;;;4.80;1.70;;;22.60;54.60;;;;;;5055023;28;20058;-77
2021/07/12 12:32:32;;;;;;;2.17;1.60;;;22.90;55.20;;;;;;5041259;28;20421;-79
2021/07/12 12:35:06;;;;;;;4.63;1.70;;;23.20;54.40;;;;;;5055316;28;20023;-79
2021/07/12 12:37:40;;;;;;;3.47;1.95;;;23.40;53.30;;;;;;5053664;28;20359;-80
2021/07/12 12:40:20;;;;;;;2.88;1.55;;;23.20;53.10;;;;;;5054959;28;20125;-81
2021/07/12 12:42:48;;;;;;;3.85;2.05;;;23.30;54.50;;;;;;5054362;28;20033;-77
2021/07/12 12:45:32;;;;;;;3.40;1.83;;;23.40;53.20;;;;;;5054945;28;20035;-81
2021/07/12 12:47:59;;;;;;;4.55;1.77;;;23.30;52.50;;;;;;5053316;28;20052;-75
2021/07/12 12:50:26;;;;;;;3.38;1.83;;;23.20;52.40;;;;;;5055030;28;20056;-76
2021/07/12 12:53:07;;;;;;;1.63;1.50;;;23.10;53.30;;;;;;5051746;28;20031;-76
2021/07/12 12:55:34;;;;;;;3.70;1.90;;;23.00;55.00;;;;;;5034435;28;20014;-78
2021/07/12 12:58:11;;;;;;;2.92;1.77;;;23.10;54.90;;;;;;5041904;28;20028;-79